Terminal Aerodrome Forecast
Issued by NWS

Home | Current Version | Previous Version | Text Only | Print | Product List | Glossary On
Versions: 1 2 3 4 5 6 7 8 9 10 11 12 13 14 15 16 17 18 19 20 21 22 23 24 25 26
855
FTUS46 KMTR 251721
TAFSFO
TAF
KSFO 251721Z 2518/2624 24006KT P6SM OVC015
     FM251900 27011KT P6SM BKN017
      TEMPO 2519/2520 SCT020
     FM252000 27018G26KT P6SM FEW020 SCT030
     FM260200 28012KT P6SM SCT030
      TEMPO 2602/2605 BKN018
     FM260500 28010KT P6SM OVC015
     FM261830 28009KT P6SM SCT020
     FM262000 28013KT P6SM SCT030=

USA.gov is the U.S. government's official web portal to all federal, state and local government web resources and services.